createdAt,value
2022-11-24T00:00:33.065Z,1000.83
2022-11-24T00:01:33.061Z,1000.88
2022-11-24T00:02:33.199Z,1000.88
2022-11-24T00:03:33.165Z,1000.90
2022-11-24T00:04:33.312Z,1000.89
2022-11-24T00:05:33.041Z,1000.86
2022-11-24T00:06:33.036Z,1000.89
2022-11-24T00:07:33.113Z,1000.86
2022-11-24T00:08:33.040Z,1000.87
2022-11-24T00:09:33.031Z,1000.84
2022-11-24T00:10:33.033Z,1000.86
2022-11-24T00:11:33.016Z,1000.88
2022-11-24T00:12:33.023Z,1000.86
2022-11-24T00:13:33.014Z,1000.88
2022-11-24T00:14:33.408Z,1000.84
2022-11-24T00:15:33.007Z,1000.87
2022-11-24T00:16:33.066Z,1000.87
2022-11-24T00:17:32.992Z,1000.84
2022-11-24T00:18:33.017Z,1000.86
2022-11-24T00:19:32.990Z,1000.87
2022-11-24T00:20:32.985Z,1000.84
2022-11-24T00:21:32.982Z,1000.88
2022-11-24T00:22:32.981Z,1000.89
2022-11-24T00:23:33.004Z,1000.85
2022-11-24T00:24:33.220Z,1000.87
2022-11-24T00:25:33.008Z,1000.83
2022-11-24T00:26:32.972Z,1000.80
2022-11-24T00:27:32.964Z,1000.82
2022-11-24T00:28:32.957Z,1000.88
2022-11-24T00:29:32.958Z,1000.91
2022-11-24T00:30:33.013Z,1000.92
2022-11-24T00:31:33.039Z,1000.90
2022-11-24T00:32:32.935Z,1000.92
2022-11-24T00:33:32.938Z,1000.94
2022-11-24T00:34:33.347Z,1000.94
2022-11-24T00:35:32.933Z,1000.93
2022-11-24T00:36:32.927Z,1000.90
2022-11-24T00:37:32.921Z,1000.91
2022-11-24T00:38:32.915Z,1000.88
2022-11-24T00:39:32.938Z,1000.89
2022-11-24T00:40:35.122Z,1000.88
2022-11-24T00:41:32.908Z,1000.88
2022-11-24T00:42:32.912Z,1000.92
2022-11-24T00:43:32.899Z,1000.87
2022-11-24T00:44:33.143Z,1000.88
2022-11-24T00:45:33.030Z,1000.90
2022-11-24T00:46:32.979Z,1000.94
2022-11-24T00:47:32.887Z,1000.91
2022-11-24T00:48:32.884Z,1000.91
2022-11-24T00:49:32.877Z,1000.93
2022-11-24T00:50:32.863Z,1000.93
2022-11-24T00:51:32.877Z,1000.98
2022-11-24T00:52:32.865Z,1001.00
2022-11-24T00:53:32.855Z,1000.99
2022-11-24T00:54:33.087Z,1001.02
2022-11-24T00:55:32.886Z,1001.03
2022-11-24T00:56:32.843Z,1001.02
2022-11-24T00:57:32.838Z,1001.02
2022-11-24T00:58:32.837Z,1001.04
2022-11-24T00:59:32.843Z,1001.03
2022-11-24T01:00:32.832Z,1001.03
2022-11-24T01:01:32.921Z,1001.03
2022-11-24T01:02:32.877Z,1001.06
2022-11-24T01:03:32.822Z,1001.07
2022-11-24T01:04:33.149Z,1001.12
2022-11-24T01:05:32.824Z,1001.14
2022-11-24T01:06:32.951Z,1001.17
2022-11-24T01:07:32.864Z,1001.17
2022-11-24T01:08:32.811Z,1001.20
2022-11-24T01:09:32.792Z,1001.22
2022-11-24T01:10:32.793Z,1001.25
2022-11-24T01:11:32.813Z,1001.26
2022-11-24T01:12:32.793Z,1001.26
2022-11-24T01:13:32.791Z,1001.34
2022-11-24T01:14:33.269Z,1001.32
2022-11-24T01:15:32.815Z,1001.37
2022-11-24T01:16:32.775Z,1001.36
2022-11-24T01:17:32.770Z,1001.40
2022-11-24T01:18:32.770Z,1001.44
2022-11-24T01:19:32.764Z,1001.37
2022-11-24T01:20:32.754Z,1001.40
2022-11-24T01:21:32.759Z,1001.36
2022-11-24T01:22:32.761Z,1001.36
2022-11-24T01:23:32.762Z,1001.43
2022-11-24T01:24:33.115Z,1001.43
2022-11-24T01:25:32.743Z,1001.40
2022-11-24T01:26:32.738Z,1001.43
2022-11-24T01:27:32.753Z,1001.43
2022-11-24T01:28:32.733Z,1001.44
2022-11-24T01:29:32.736Z,1001.40
2022-11-24T01:30:32.762Z,1001.40
2022-11-24T01:31:32.716Z,1001.40
2022-11-24T01:32:32.722Z,1001.43
2022-11-24T01:33:32.710Z,1001.38
2022-11-24T01:34:33.051Z,1001.34
2022-11-24T01:35:32.710Z,1001.39
2022-11-24T01:36:32.696Z,1001.37
2022-11-24T01:37:32.689Z,1001.36
2022-11-24T01:38:32.695Z,1001.37
2022-11-24T01:39:32.690Z,1001.34
2022-11-24T01:40:32.690Z,1001.34
2022-11-24T01:41:32.682Z,1001.33
2022-11-24T01:42:32.676Z,1001.39
2022-11-24T01:43:32.694Z,1001.39
2022-11-24T01:44:33.085Z,1001.41
2022-11-24T01:45:32.671Z,1001.38
2022-11-24T01:46:32.750Z,1001.39
2022-11-24T01:47:32.650Z,1001.37
2022-11-24T01:48:32.654Z,1001.43
2022-11-24T01:49:32.655Z,1001.47
2022-11-24T01:50:32.654Z,1001.47
2022-11-24T01:51:32.634Z,1001.49
2022-11-24T01:52:32.640Z,1001.52
2022-11-24T01:53:32.633Z,1001.50
2022-11-24T01:54:32.885Z,1001.45
2022-11-24T01:55:32.622Z,1001.46
2022-11-24T01:56:32.616Z,1001.44
2022-11-24T01:57:32.610Z,1001.49
2022-11-24T01:58:32.618Z,1001.44
2022-11-24T01:59:32.632Z,1001.46
2022-11-24T02:00:32.610Z,1001.45
2022-11-24T02:01:32.638Z,1001.48
2022-11-24T02:02:32.670Z,1001.48
2022-11-24T02:03:32.595Z,1001.48
2022-11-24T02:04:33.011Z,1001.46
2022-11-24T02:05:32.586Z,1001.49
2022-11-24T02:06:32.582Z,1001.49
2022-11-24T02:07:32.624Z,1001.55
2022-11-24T02:08:32.592Z,1001.47
2022-11-24T02:09:32.567Z,1001.52
2022-11-24T02:10:32.576Z,1001.53
2022-11-24T02:11:32.568Z,1001.53
2022-11-24T02:12:32.557Z,1001.56
2022-11-24T02:13:32.554Z,1001.53
2022-11-24T02:14:32.803Z,1001.58
2022-11-24T02:15:32.635Z,1001.58
2022-11-24T02:16:32.544Z,1001.56
2022-11-24T02:17:32.540Z,1001.60
2022-11-24T02:18:32.534Z,1001.65
2022-11-24T02:19:32.542Z,1001.59
2022-11-24T02:20:32.523Z,1001.61
2022-11-24T02:21:32.547Z,1001.62
2022-11-24T02:22:32.517Z,1001.67
2022-11-24T02:23:32.513Z,1001.73
2022-11-24T02:24:32.889Z,1001.70
2022-11-24T02:25:32.507Z,1001.71
2022-11-24T02:26:32.513Z,1001.71
2022-11-24T02:27:32.500Z,1001.69
2022-11-24T02:28:32.495Z,1001.72
2022-11-24T02:29:32.494Z,1001.71
2022-11-24T02:30:32.487Z,1001.73
2022-11-24T02:31:32.663Z,1001.70
2022-11-24T02:32:32.481Z,1001.71
2022-11-24T02:33:32.477Z,1001.74
2022-11-24T02:34:32.892Z,1001.72
2022-11-24T02:35:32.479Z,1001.79
2022-11-24T02:36:32.477Z,1001.74
2022-11-24T02:37:32.472Z,1001.79
2022-11-24T02:38:32.476Z,1001.79
2022-11-24T02:39:32.452Z,1001.82
2022-11-24T02:40:32.461Z,1001.85
2022-11-24T02:41:32.448Z,1001.78
2022-11-24T02:42:32.443Z,1001.76
2022-11-24T02:43:32.447Z,1001.74
2022-11-24T02:44:32.725Z,1001.72
2022-11-24T02:45:32.445Z,1001.77
2022-11-24T02:46:32.463Z,1001.76
2022-11-24T02:47:32.445Z,1001.77
2022-11-24T02:48:32.424Z,1001.78
2022-11-24T02:49:32.419Z,1001.81
2022-11-24T02:50:32.411Z,1001.79
2022-11-24T02:51:32.406Z,1001.82
2022-11-24T02:52:32.410Z,1001.83
2022-11-24T02:53:32.405Z,1001.82
2022-11-24T02:54:32.864Z,1001.84
2022-11-24T02:55:32.406Z,1001.83
2022-11-24T02:56:32.391Z,1001.80
2022-11-24T02:57:32.395Z,1001.82
2022-11-24T02:58:32.387Z,1001.81
2022-11-24T02:59:32.378Z,1001.75
2022-11-24T03:00:32.379Z,1001.79
2022-11-24T03:01:32.468Z,1001.82
2022-11-24T03:02:32.447Z,1001.77
2022-11-24T03:03:32.388Z,1001.80
2022-11-24T03:04:32.739Z,1001.77
2022-11-24T03:05:32.353Z,1001.75
2022-11-24T03:06:32.355Z,1001.73
2022-11-24T03:07:32.452Z,1001.79
2022-11-24T03:08:32.346Z,1001.77
2022-11-24T03:09:32.346Z,1001.80
2022-11-24T03:10:32.348Z,1001.79
2022-11-24T03:11:32.346Z,1001.82
2022-11-24T03:12:32.335Z,1001.84
2022-11-24T03:13:32.330Z,1001.84
2022-11-24T03:14:32.912Z,1001.86
2022-11-24T03:15:32.340Z,1001.86
2022-11-24T03:16:32.329Z,1001.90
2022-11-24T03:17:32.311Z,1001.84
2022-11-24T03:18:32.303Z,1001.87
2022-11-24T03:19:32.330Z,1001.85
2022-11-24T03:20:32.300Z,1001.88
2022-11-24T03:21:32.301Z,1001.88
2022-11-24T03:22:32.309Z,1001.85
2022-11-24T03:23:32.292Z,1001.87
2022-11-24T03:24:32.671Z,1001.95
2022-11-24T03:25:32.306Z,1001.90
2022-11-24T03:26:32.294Z,1001.99
2022-11-24T03:27:32.281Z,1002.01
2022-11-24T03:28:32.290Z,1002.00
2022-11-24T03:29:32.279Z,1001.96
2022-11-24T03:30:32.269Z,1001.95
2022-11-24T03:31:32.296Z,1001.97
2022-11-24T03:32:32.262Z,1001.97
2022-11-24T03:33:32.279Z,1002.01
2022-11-24T03:34:32.699Z,1002.00
2022-11-24T03:35:32.273Z,1001.99
2022-11-24T03:36:32.238Z,1002.02
2022-11-24T03:37:32.236Z,1002.06
2022-11-24T03:38:32.231Z,1002.04
2022-11-24T03:39:32.239Z,1002.03
2022-11-24T03:40:32.226Z,1002.05
2022-11-24T03:41:32.231Z,1002.03
2022-11-24T03:42:32.213Z,1002.03
2022-11-24T03:43:32.220Z,1002.05
2022-11-24T03:44:32.656Z,1002.04
2022-11-24T03:45:45.837Z,1002.02
2022-11-24T03:46:32.268Z,1002.02
2022-11-24T03:47:32.199Z,1002.00
2022-11-24T03:48:32.194Z,1002.01
2022-11-24T03:49:32.560Z,1002.02
2022-11-24T03:50:32.193Z,1002.06
2022-11-24T03:51:32.202Z,1002.01
2022-11-24T03:52:32.182Z,1002.03
2022-11-24T03:53:32.189Z,1002.04
2022-11-24T03:54:32.533Z,1001.99
2022-11-24T03:55:32.175Z,1002.04
2022-11-24T03:56:32.162Z,1002.04
2022-11-24T03:57:32.170Z,1002.09
2022-11-24T03:58:32.162Z,1002.12
2022-11-24T03:59:32.158Z,1002.13
2022-11-24T04:00:32.151Z,1002.09
2022-11-24T04:01:32.227Z,1002.12
2022-11-24T04:02:32.249Z,1002.12
2022-11-24T04:03:32.143Z,1002.16
2022-11-24T04:04:32.409Z,1002.17
2022-11-24T04:05:32.140Z,1002.20
2022-11-24T04:06:32.128Z,1002.20
2022-11-24T04:07:32.229Z,1002.24
2022-11-24T04:08:32.121Z,1002.29
2022-11-24T04:09:32.119Z,1002.28
2022-11-24T04:10:32.113Z,1002.24
2022-11-24T04:11:32.113Z,1002.28
2022-11-24T04:12:32.197Z,1002.24
2022-11-24T04:13:32.125Z,1002.24
2022-11-24T04:14:32.421Z,1002.26
2022-11-24T04:15:32.095Z,1002.23
2022-11-24T04:16:32.126Z,1002.20
2022-11-24T04:17:32.093Z,1002.23
2022-11-24T04:18:32.081Z,1002.21
2022-11-24T04:19:32.080Z,1002.22
2022-11-24T04:20:32.071Z,1002.18
2022-11-24T04:21:32.080Z,1002.22
2022-11-24T04:22:32.070Z,1002.27
2022-11-24T04:23:32.078Z,1002.27
2022-11-24T04:24:32.445Z,1002.20
2022-11-24T04:25:32.050Z,1002.26
2022-11-24T04:26:32.049Z,1002.22
2022-11-24T04:27:32.042Z,1002.20
2022-11-24T04:28:32.042Z,1002.25
2022-11-24T04:29:32.035Z,1002.25
2022-11-24T04:30:32.037Z,1002.28
2022-11-24T04:31:32.099Z,1002.26
2022-11-24T04:32:32.026Z,1002.27
2022-11-24T04:33:32.049Z,1002.23
2022-11-24T04:34:32.464Z,1002.25
2022-11-24T04:35:32.018Z,1002.26
2022-11-24T04:36:32.011Z,1002.26
2022-11-24T04:37:32.008Z,1002.25
2022-11-24T04:39:25.565Z,1002.31
2022-11-24T04:39:32.028Z,1002.28
2022-11-24T04:40:31.999Z,1002.30
2022-11-24T04:41:31.991Z,1002.33
2022-11-24T04:42:31.995Z,1002.36
2022-11-24T04:43:36.384Z,1002.35
2022-11-24T04:44:32.613Z,1002.35
2022-11-24T04:45:31.974Z,1002.36
2022-11-24T04:46:32.049Z,1002.42
2022-11-24T04:47:31.969Z,1002.39
2022-11-24T04:48:31.964Z,1002.42
2022-11-24T04:49:31.968Z,1002.43
2022-11-24T04:50:31.965Z,1002.45
2022-11-24T04:51:31.959Z,1002.48
2022-11-24T04:52:31.954Z,1002.45
2022-11-24T04:53:31.949Z,1002.47
2022-11-24T04:54:32.276Z,1002.51
2022-11-24T04:55:31.960Z,1002.52
2022-11-24T04:56:31.932Z,1002.48
2022-11-24T04:57:31.938Z,1002.53
2022-11-24T04:58:31.928Z,1002.51
2022-11-24T04:59:31.926Z,1002.53
2022-11-24T05:00:31.948Z,1002.51
2022-11-24T05:01:31.970Z,1002.54
2022-11-24T05:02:31.911Z,1002.54
2022-11-24T05:03:31.912Z,1002.57
2022-11-24T05:04:32.321Z,1002.56
2022-11-24T05:05:31.899Z,1002.55
2022-11-24T05:06:31.902Z,1002.60
2022-11-24T05:07:31.947Z,1002.58
2022-11-24T05:08:31.899Z,1002.62
2022-11-24T05:09:48.166Z,1002.60
2022-11-24T05:10:31.891Z,1002.62
2022-11-24T05:11:31.926Z,1002.63
2022-11-24T05:12:31.873Z,1002.68
2022-11-24T05:13:31.873Z,1002.67
2022-11-24T05:14:32.258Z,1002.72
2022-11-24T05:15:31.861Z,1002.77
2022-11-24T05:16:31.976Z,1002.75
2022-11-24T05:17:31.863Z,1002.78
2022-11-24T05:18:31.850Z,1002.77
2022-11-24T05:19:32.444Z,1002.81
2022-11-24T05:20:31.841Z,1002.80
2022-11-24T05:21:31.859Z,1002.86
2022-11-24T05:22:31.849Z,1002.84
2022-11-24T05:23:31.835Z,1002.87
2022-11-24T05:24:32.350Z,1002.88
2022-11-24T05:25:31.842Z,1002.90
2022-11-24T05:26:31.831Z,1002.94
2022-11-24T05:27:31.838Z,1002.96
2022-11-24T05:28:31.814Z,1002.95
2022-11-24T05:29:31.809Z,1002.98
2022-11-24T05:30:31.806Z,1003.00
2022-11-24T05:31:31.843Z,1003.05
2022-11-24T05:32:31.809Z,1003.03
2022-11-24T05:33:31.793Z,1003.04
2022-11-24T05:34:32.161Z,1003.02
2022-11-24T05:35:31.791Z,1003.04
2022-11-24T05:36:31.776Z,1003.04
2022-11-24T05:37:31.775Z,1003.03
2022-11-24T05:38:31.780Z,1003.02
2022-11-24T05:39:31.783Z,1003.08
2022-11-24T05:40:31.763Z,1003.10
2022-11-24T05:41:31.776Z,1003.14
2022-11-24T05:42:31.762Z,1003.14
2022-11-24T05:43:31.793Z,1003.10
2022-11-24T05:44:32.182Z,1003.13
2022-11-24T05:45:31.776Z,1003.10
2022-11-24T05:46:31.812Z,1003.17
2022-11-24T05:47:31.740Z,1003.20
2022-11-24T05:48:31.744Z,1003.24
2022-11-24T05:49:31.747Z,1003.28
2022-11-24T05:50:31.732Z,1003.24
2022-11-24T05:51:31.742Z,1003.32
2022-11-24T05:52:31.742Z,1003.29
2022-11-24T05:53:31.732Z,1003.39
2022-11-24T05:54:32.117Z,1003.41
2022-11-24T05:55:31.727Z,1003.30
2022-11-24T05:56:31.698Z,1003.41
2022-11-24T05:57:31.711Z,1003.46
2022-11-24T05:58:31.707Z,1003.41
2022-11-24T05:59:31.714Z,1003.43
2022-11-24T06:00:31.688Z,1003.49
2022-11-24T06:01:31.771Z,1003.48
2022-11-24T06:02:31.810Z,1003.53
2022-11-24T06:03:31.696Z,1003.51
2022-11-24T06:04:31.811Z,1003.48
2022-11-24T06:05:31.681Z,1003.47
2022-11-24T06:06:31.661Z,1003.57
2022-11-24T06:07:31.782Z,1003.52
2022-11-24T06:08:31.720Z,1003.50
2022-11-24T06:09:31.671Z,1003.51
2022-11-24T06:10:31.661Z,1003.50
2022-11-24T06:11:31.645Z,1003.53
2022-11-24T06:12:31.655Z,1003.49
2022-11-24T06:13:31.696Z,1003.50
2022-11-24T06:14:31.984Z,1003.51
2022-11-24T06:15:31.656Z,1003.52
2022-11-24T06:16:31.734Z,1003.55
2022-11-24T06:17:31.636Z,1003.51
2022-11-24T06:18:31.630Z,1003.51
2022-11-24T06:19:31.615Z,1003.50
2022-11-24T06:20:33.016Z,1003.48
2022-11-24T06:21:31.613Z,1003.46
2022-11-24T06:22:31.623Z,1003.46
2022-11-24T06:23:31.599Z,1003.45
2022-11-24T06:24:31.795Z,1003.49
2022-11-24T06:25:31.606Z,1003.49
2022-11-24T06:26:31.587Z,1003.49
2022-11-24T06:27:31.594Z,1003.50
2022-11-24T06:28:31.596Z,1003.48
2022-11-24T06:29:31.593Z,1003.51
2022-11-24T06:30:31.597Z,1003.55
2022-11-24T06:31:31.666Z,1003.63
2022-11-24T06:32:31.581Z,1003.66
2022-11-24T06:33:31.582Z,1003.59
2022-11-24T06:34:31.847Z,1003.65
2022-11-24T06:35:31.555Z,1003.72
2022-11-24T06:36:31.563Z,1003.78
2022-11-24T06:37:31.581Z,1003.76
2022-11-24T06:38:31.564Z,1003.75
2022-11-24T06:39:31.542Z,1003.69
2022-11-24T06:40:31.542Z,1003.76
2022-11-24T06:41:31.562Z,1003.72
2022-11-24T06:42:31.536Z,1003.76
2022-11-24T06:43:31.548Z,1003.76
2022-11-24T06:44:31.715Z,1003.75
2022-11-24T06:45:31.578Z,1003.78
2022-11-24T06:46:31.532Z,1003.77
2022-11-24T06:47:31.649Z,1003.82
2022-11-24T06:48:31.510Z,1003.82
2022-11-24T06:49:31.522Z,1003.81
2022-11-24T06:50:33.698Z,1003.83
2022-11-24T06:51:31.507Z,1003.81
2022-11-24T06:52:31.499Z,1003.81
2022-11-24T06:53:31.514Z,1003.84
2022-11-24T06:54:31.597Z,1003.79
2022-11-24T06:55:31.500Z,1003.77
2022-11-24T06:56:31.505Z,1003.81
2022-11-24T06:57:31.495Z,1003.80
2022-11-24T06:58:31.484Z,1003.84
2022-11-24T06:59:31.483Z,1003.85
2022-11-24T07:00:31.479Z,1003.86
2022-11-24T07:01:31.525Z,1003.90
2022-11-24T07:02:31.482Z,1003.96
2022-11-24T07:03:31.537Z,1003.99
2022-11-24T07:04:31.659Z,1003.98
2022-11-24T07:05:31.465Z,1003.99
2022-11-24T07:06:31.476Z,1004.02
2022-11-24T07:07:31.511Z,1004.05
2022-11-24T07:08:31.465Z,1004.02
2022-11-24T07:09:31.469Z,1004.03
2022-11-24T07:10:31.452Z,1004.04
2022-11-24T07:11:31.462Z,1004.06
2022-11-24T07:12:31.455Z,1004.10
2022-11-24T07:13:31.438Z,1004.10
2022-11-24T07:14:31.806Z,1004.12
2022-11-24T07:15:31.438Z,1004.13
2022-11-24T07:16:31.469Z,1004.16
2022-11-24T07:17:31.436Z,1004.20
2022-11-24T07:18:31.424Z,1004.23
2022-11-24T07:19:31.434Z,1004.23
2022-11-24T07:20:31.423Z,1004.25
2022-11-24T07:21:31.416Z,1004.30
2022-11-24T07:22:31.412Z,1004.32
2022-11-24T07:23:31.405Z,1004.32
2022-11-24T07:24:31.618Z,1004.35
2022-11-24T07:25:31.399Z,1004.36
2022-11-24T07:26:31.399Z,1004.40
2022-11-24T07:27:31.398Z,1004.42
2022-11-24T07:28:31.404Z,1004.45
2022-11-24T07:29:31.384Z,1004.45
2022-11-24T07:30:31.390Z,1004.49
2022-11-24T07:31:31.447Z,1004.52
2022-11-24T07:32:31.399Z,1004.53
2022-11-24T07:33:31.387Z,1004.62
2022-11-24T07:34:31.513Z,1004.65
2022-11-24T07:35:31.393Z,1004.65
2022-11-24T07:36:31.368Z,1004.70
2022-11-24T07:37:31.957Z,1004.73
2022-11-24T07:38:31.368Z,1004.74
2022-11-24T07:39:31.374Z,1004.78
2022-11-24T07:40:31.359Z,1004.79
2022-11-24T07:41:31.374Z,1004.80
2022-11-24T07:42:31.366Z,1004.76
2022-11-24T07:43:31.358Z,1004.76
2022-11-24T07:44:31.554Z,1004.76
2022-11-24T07:45:31.446Z,1004.79
2022-11-24T07:46:31.355Z,1004.85
2022-11-24T07:47:31.350Z,1004.89
2022-11-24T07:48:31.351Z,1004.88
2022-11-24T07:49:31.329Z,1004.89
2022-11-24T07:50:31.345Z,1004.92
2022-11-24T07:51:31.372Z,1004.96
2022-11-24T07:52:31.334Z,1004.94
2022-11-24T07:53:31.328Z,1005.00
2022-11-24T07:54:31.495Z,1005.02
2022-11-24T07:55:31.381Z,1005.03
2022-11-24T07:56:31.318Z,1005.03
2022-11-24T07:57:31.303Z,1005.07
2022-11-24T07:58:32.823Z,1005.14
2022-11-24T07:59:31.318Z,1005.16
2022-11-24T08:00:31.319Z,1005.16
2022-11-24T08:01:31.349Z,1005.16
2022-11-24T08:02:31.310Z,1005.21
2022-11-24T08:03:31.319Z,1005.24
2022-11-24T08:04:31.482Z,1005.28
2022-11-24T08:05:31.282Z,1005.29
2022-11-24T08:06:39.660Z,1005.30
2022-11-24T08:07:31.422Z,1005.29
2022-11-24T08:08:31.293Z,1005.35
2022-11-24T08:09:31.282Z,1005.32
2022-11-24T08:10:31.284Z,1005.38
2022-11-24T08:11:31.271Z,1005.37
2022-11-24T08:12:31.287Z,1005.43
2022-11-24T08:13:31.291Z,1005.44
2022-11-24T08:14:31.321Z,1005.45
2022-11-24T08:15:31.250Z,1005.49
2022-11-24T08:16:31.272Z,1005.50
2022-11-24T08:17:31.245Z,1005.49
2022-11-24T08:18:31.272Z,1005.51
2022-11-24T08:19:31.234Z,1005.56
2022-11-24T08:20:31.237Z,1005.54
2022-11-24T08:21:31.349Z,1005.60
2022-11-24T08:22:31.256Z,1005.60
2022-11-24T08:23:31.242Z,1005.61
2022-11-24T08:24:31.498Z,1005.58
2022-11-24T08:25:31.219Z,1005.56
2022-11-24T08:26:31.232Z,1005.60
2022-11-24T08:27:31.224Z,1005.58
2022-11-24T08:28:31.217Z,1005.53
2022-11-24T08:29:31.205Z,1005.62
2022-11-24T08:30:31.262Z,1005.62
2022-11-24T08:31:31.314Z,1005.64
2022-11-24T08:32:31.228Z,1005.61
2022-11-24T08:33:31.205Z,1005.61
2022-11-24T08:34:31.377Z,1005.57
2022-11-24T08:35:31.224Z,1005.61
2022-11-24T08:36:31.242Z,1005.56
2022-11-24T08:37:31.263Z,1005.61
2022-11-24T08:38:31.227Z,1005.62
2022-11-24T08:39:31.227Z,1005.65
2022-11-24T08:40:31.186Z,1005.67
2022-11-24T08:41:31.169Z,1005.68
2022-11-24T08:42:31.178Z,1005.70
2022-11-24T08:43:31.171Z,1005.70
2022-11-24T08:44:31.158Z,1005.70
2022-11-24T08:45:32.545Z,1005.78
2022-11-24T08:46:31.269Z,1005.80
2022-11-24T08:47:31.149Z,1005.84
2022-11-24T08:48:31.173Z,1005.83
2022-11-24T08:49:31.140Z,1005.86
2022-11-24T08:50:31.143Z,1005.87
2022-11-24T08:51:31.156Z,1005.91
2022-11-24T08:52:31.161Z,1005.92
2022-11-24T08:53:31.176Z,1005.94
2022-11-24T08:54:31.144Z,1005.94
2022-11-24T08:55:31.147Z,1005.95
2022-11-24T08:56:31.146Z,1005.97
2022-11-24T08:57:31.124Z,1005.98
2022-11-24T08:58:31.123Z,1006.00
2022-11-24T08:59:31.180Z,1005.99
2022-11-24T09:00:31.111Z,1006.00
2022-11-24T09:01:31.184Z,1006.00
2022-11-24T09:02:31.128Z,1006.02
2022-11-24T09:03:31.094Z,1006.03
2022-11-24T09:04:31.227Z,1006.08
2022-11-24T09:05:53.763Z,1006.09
2022-11-24T09:06:31.195Z,1006.15
2022-11-24T09:07:31.155Z,1006.16
2022-11-24T09:08:31.111Z,1006.17
2022-11-24T09:09:31.081Z,1006.19
2022-11-24T09:10:31.078Z,1006.15
2022-11-24T09:11:31.111Z,1006.20
2022-11-24T09:12:31.081Z,1006.21
2022-11-24T09:13:31.065Z,1006.19
2022-11-24T09:14:31.277Z,1006.19
2022-11-24T09:15:31.054Z,1006.18
2022-11-24T09:16:31.135Z,1006.11
2022-11-24T09:17:31.071Z,1006.11
2022-11-24T09:18:31.074Z,1006.11
2022-11-24T09:19:31.164Z,1006.13
2022-11-24T09:20:31.056Z,1006.17
2022-11-24T09:21:31.054Z,1006.21
2022-11-24T09:22:31.073Z,1006.21
2022-11-24T09:23:31.051Z,1006.23
2022-11-24T09:24:31.045Z,1006.23
2022-11-24T09:25:31.043Z,1006.30
2022-11-24T09:26:31.030Z,1006.25
2022-11-24T09:27:31.039Z,1006.32
2022-11-24T09:28:31.042Z,1006.33
2022-11-24T09:29:31.072Z,1006.34
2022-11-24T09:30:31.150Z,1006.34
2022-11-24T09:31:31.053Z,1006.36
2022-11-24T09:32:31.024Z,1006.41
2022-11-24T09:33:31.010Z,1006.39
2022-11-24T09:34:31.010Z,1006.46
2022-11-24T09:35:30.985Z,1006.47
2022-11-24T09:36:30.998Z,1006.49
2022-11-24T09:37:32.909Z,1006.53
2022-11-24T09:38:30.983Z,1006.53
2022-11-24T09:39:31.042Z,1006.57
2022-11-24T09:40:30.986Z,1006.58
2022-11-24T09:41:30.983Z,1006.56
2022-11-24T09:42:30.973Z,1006.57
2022-11-24T09:43:30.982Z,1006.60
2022-11-24T09:44:30.964Z,1006.60
2022-11-24T09:46:03.450Z,1006.61
2022-11-24T09:46:31.015Z,1006.61
2022-11-24T09:47:30.973Z,1006.64
2022-11-24T09:48:31.070Z,1006.68
2022-11-24T09:49:31.018Z,1006.63
2022-11-24T09:50:30.957Z,1006.62
2022-11-24T09:51:31.028Z,1006.67
2022-11-24T09:52:30.930Z,1006.60
2022-11-24T09:53:30.923Z,1006.66
2022-11-24T09:54:30.937Z,1006.67
2022-11-24T09:55:30.934Z,1006.70
2022-11-24T09:56:30.930Z,1006.69
2022-11-24T09:57:36.945Z,1006.68
2022-11-24T09:58:30.967Z,1006.73
2022-11-24T09:59:30.986Z,1006.70
2022-11-24T10:00:30.947Z,1006.72
2022-11-24T10:01:30.952Z,1006.72
2022-11-24T10:02:30.947Z,1006.72
2022-11-24T10:03:30.951Z,1006.73
2022-11-24T10:04:30.977Z,1006.78
2022-11-24T10:05:30.886Z,1006.74
2022-11-24T10:06:30.885Z,1006.77
2022-11-24T10:07:30.918Z,1006.74
2022-11-24T10:08:30.913Z,1006.79
2022-11-24T10:09:30.911Z,1006.75
2022-11-24T10:10:30.883Z,1006.82
2022-11-24T10:11:30.864Z,1006.80
2022-11-24T10:12:30.893Z,1006.82
2022-11-24T10:13:30.869Z,1006.83
2022-11-24T10:14:30.897Z,1006.85
2022-11-24T10:15:30.984Z,1006.80
2022-11-24T10:16:30.954Z,1006.86
2022-11-24T10:17:30.849Z,1006.88
2022-11-24T10:18:30.864Z,1006.93
2022-11-24T10:19:36.945Z,1006.92
2022-11-24T10:20:30.975Z,1006.92
2022-11-24T10:21:30.831Z,1006.96
2022-11-24T10:22:30.847Z,1006.94
2022-11-24T10:23:32.666Z,1006.93
2022-11-24T10:24:30.826Z,1006.98
2022-11-24T10:25:30.847Z,1006.98
2022-11-24T10:26:30.820Z,1006.96
2022-11-24T10:27:30.813Z,1006.97
2022-11-24T10:28:30.816Z,1006.95
2022-11-24T10:29:30.808Z,1006.96
2022-11-24T10:30:30.850Z,1007.01
2022-11-24T10:31:30.887Z,1007.00
2022-11-24T10:32:30.804Z,1007.00
2022-11-24T10:33:31.211Z,1006.99
2022-11-24T10:34:30.832Z,1006.99
2022-11-24T10:35:30.851Z,1007.03
2022-11-24T10:36:30.807Z,1006.99
2022-11-24T10:37:30.808Z,1007.03
2022-11-24T10:38:30.779Z,1007.03
2022-11-24T10:39:30.789Z,1007.00
2022-11-24T10:40:56.024Z,1007.04
2022-11-24T10:41:30.857Z,1007.04
2022-11-24T10:42:30.797Z,1007.00
2022-11-24T10:43:30.756Z,1007.06
2022-11-24T10:44:30.769Z,1007.09
2022-11-24T10:45:30.766Z,1007.04
2022-11-24T10:46:36.243Z,1007.11
2022-11-24T10:47:30.788Z,1007.15
2022-11-24T10:48:30.750Z,1007.11
2022-11-24T10:49:30.749Z,1007.12
2022-11-24T10:50:30.756Z,1007.12
2022-11-24T10:51:30.837Z,1007.11
2022-11-24T10:52:30.748Z,1007.15
2022-11-24T10:53:30.735Z,1007.14
2022-11-24T10:54:30.758Z,1007.15
2022-11-24T10:55:30.730Z,1007.19
2022-11-24T10:56:30.731Z,1007.22
2022-11-24T10:57:30.727Z,1007.19
2022-11-24T10:58:37.090Z,1007.21
2022-11-24T10:59:30.711Z,1007.20
2022-11-24T11:00:30.714Z,1007.21
2022-11-24T11:01:30.876Z,1007.18
2022-11-24T11:02:30.814Z,1007.17
2022-11-24T11:03:30.717Z,1007.17
2022-11-24T11:04:30.691Z,1007.17
2022-11-24T11:05:30.685Z,1007.18
2022-11-24T11:06:30.703Z,1007.17
2022-11-24T11:07:30.833Z,1007.15
2022-11-24T11:08:30.703Z,1007.16
2022-11-24T11:09:30.682Z,1007.19
2022-11-24T11:10:30.688Z,1007.20
2022-11-24T11:11:30.751Z,1007.18
2022-11-24T11:12:46.140Z,1007.19
2022-11-24T11:13:30.681Z,1007.21
2022-11-24T11:14:30.668Z,1007.17
2022-11-24T11:15:30.753Z,1007.22
2022-11-24T11:16:30.692Z,1007.17
2022-11-24T11:17:30.674Z,1007.20
2022-11-24T11:18:30.639Z,1007.17
2022-11-24T11:19:48.482Z,1007.19
2022-11-24T11:20:30.631Z,1007.22
2022-11-24T11:21:30.787Z,1007.23
2022-11-24T11:22:30.642Z,1007.19
2022-11-24T11:23:30.625Z,1007.24
2022-11-24T11:24:30.620Z,1007.25
2022-11-24T11:25:30.633Z,1007.28
2022-11-24T11:26:30.619Z,1007.34
2022-11-24T11:27:30.620Z,1007.27
2022-11-24T11:28:30.603Z,1007.28
2022-11-24T11:31:30.603Z,1007.31
2022-11-24T11:34:30.735Z,1007.33
2022-11-24T11:35:30.626Z,1007.36
2022-11-24T11:36:30.598Z,1007.36
2022-11-24T11:37:30.582Z,1007.34
2022-11-24T11:38:30.575Z,1007.35
2022-11-24T11:39:30.588Z,1007.37
2022-11-24T11:40:30.599Z,1007.41
2022-11-24T11:41:30.568Z,1007.37
2022-11-24T11:43:01.880Z,1007.40
2022-11-24T11:43:30.575Z,1007.43
2022-11-24T11:44:31.388Z,1007.41
2022-11-24T11:45:30.684Z,1007.38
2022-11-24T11:46:30.577Z,1007.39
2022-11-24T11:47:30.561Z,1007.39
2022-11-24T11:48:35.094Z,1007.39
2022-11-24T11:49:30.542Z,1007.42
2022-11-24T11:50:30.623Z,1007.43
2022-11-24T11:51:30.725Z,1007.42
2022-11-24T11:52:30.548Z,1007.41
2022-11-24T11:53:30.547Z,1007.42
2022-11-24T11:54:30.536Z,1007.43
2022-11-24T11:55:30.535Z,1007.44
2022-11-24T11:56:30.526Z,1007.44
2022-11-24T11:57:30.532Z,1007.48
2022-11-24T11:58:30.523Z,1007.43
2022-11-24T11:59:30.508Z,1007.41
2022-11-24T12:00:30.504Z,1007.40
2022-11-24T12:01:30.516Z,1007.40
2022-11-24T12:02:30.649Z,1007.45
2022-11-24T12:03:30.612Z,1007.44
2022-11-24T12:04:30.485Z,1007.47
2022-11-24T12:05:30.509Z,1007.45
2022-11-24T12:06:30.492Z,1007.41
2022-11-24T12:07:30.566Z,1007.44
2022-11-24T12:08:43.975Z,1007.44
2022-11-24T12:09:30.491Z,1007.48